Hovedside
METAR-TAF:

METAR-TAF

Lufthavner :

Vidsel, Sverige

breddegrad: 65-52N, lengdegrad: 020-08E, høyde over havet: 180 m

Gjeldene værobservasjon

Denne rapporten ble laget for 23 minutter siden, klokken 12:20 UTC
Vind 16 kt fra Vest-nordvest
Temperatur -1°C
Luftfuktighet 59%
Trykk 990 hPa
Sikt 10 km eller mer
ingen skyer under 1500 m og ingen bygeskyer

METAR: ESPE 241220Z 29016KT CAVOK M01/M08 Q0990

Tid: 13:43 (12:43 UTC)

Varsel

Denne rapporten ble laget for 1 time og 38 minutter siden, klokken 11:05 UTC
Varsel gyldig fra 24. klokken 12 UTC til 24. klokken 15 UTC
Vind 15 kt fra Vest-nordvest med vindkast opp mot 25 kt
Sikt 10 km eller mer
ingen skyer under 1500 m og ingen bygeskyer
Blir
fra 24. klokken 12 UTC til 24. klokken 14 UTC
Vind 12 kt fra Vest-nordvest med vindkast opp mot 20 kt

TAF: ESPE 241105Z 2412/2415 30015G25KT CAVOK BECMG 2412/2414 30012G20KT RMK MIL

Værobservasjoner og værvarsel for over 4000 flyplasser (METAR- og TAF-rapporter).

Tilgjengelige stasjoner er representert av de røde og gule prikkene på kartet.

Hold musepekeren over prikken for å se navnet på stasjonen.

Klikk så for å se værobservasjoner og -varsler.

For å forandre kartet kan du klikke på den grønne knappen med svart kryss for å zoome inn, på den grønne knappen med strek for å zoome ut, eller på de grønne pilene for å se tilstøtende kart.


METAR-TAF: